Terminal Aerodrome Forecast
Issued by NWS Charleston, WV

Home | Current Version | Previous Version | Text Only | Print | Product List | Glossary On
Versions: 1 2 3 4 5 6 7 8 9 10 11 12 13 14 15 16 17 18 19 20 21 22 23 24 25 26 27 28 29
000
FTUS41 KRLX 221700
TAFBKW
TAF
KBKW 221739Z 2218/2318 13008G14KT P6SM BKN015
     FM222100 13010KT P6SM BKN020
     FM230000 13012KT P6SM OVC030
     FM230900 15012KT P6SM BKN020
     FM231400 15011G17KT P6SM BKN025=

USA.gov is the U.S. government's official web portal to all federal, state and local government web resources and services.